Decoded Metar for LEAS (ASTURIAS in SPAIN) (IATA:OVD) | Meteo·Mobile Aviation Weather
aviador You're here:

LEAS Decoded Metar

ASTURIAS in SPAIN
Report Time2019-07-24 04:00:00
UTC Time2019-07-24 04:21:48
Flight Rules vfr VFR
WindCalm
Visibility8000 m
Phenomena:N/A
Clouds:Few 006 Hf
Scattered 020 Hf
CeilingNone
Temp18°C (ISA +4)
Dew Point18°C (100% RH)
QNH1015 hPa
Density Alt1,102 ft
Elevation440 ft
Report Wrong Elevation
Raw Report
LEAS 240400Z 00000KT 8000 FEW006 SCT020 18/18 Q1015 NOSIG=

Extra information for LEAS:More info

Metar Taf Metar & Taf Last 4 Metars F.Rules Stats Wind Profile Meteogram Temp Stats Airport Information Weather charts Add Link Nearby VenuesMetar ALERT Operation Metar Decoded Social comments